sensor_id;sensor_type;location;lat;lon;timestamp;P1;durP1;ratioP1;P2;durP2;ratioP2
79670;SDS011;69137;50.878;8.050;2024-03-06T00:01:41;30.45;;;15.95;;
79670;SDS011;69137;50.878;8.050;2024-03-06T00:04:07;34.72;;;16.58;;
79670;SDS011;69137;50.878;8.050;2024-03-06T00:06:32;30.93;;;15.50;;
79670;SDS011;69137;50.878;8.050;2024-03-06T00:08:58;30.42;;;16.42;;
79670;SDS011;69137;50.878;8.050;2024-03-06T00:11:23;30.57;;;15.60;;
79670;SDS011;69137;50.878;8.050;2024-03-06T00:13:48;30.60;;;15.87;;
79670;SDS011;69137;50.878;8.050;2024-03-06T00:16:14;28.07;;;14.43;;
79670;SDS011;69137;50.878;8.050;2024-03-06T00:18:39;28.35;;;15.13;;
79670;SDS011;69137;50.878;8.050;2024-03-06T00:21:05;28.00;;;14.88;;
79670;SDS011;69137;50.878;8.050;2024-03-06T00:23:31;28.70;;;14.48;;
79670;SDS011;69137;50.878;8.050;2024-03-06T00:25:57;29.85;;;14.82;;
79670;SDS011;69137;50.878;8.050;2024-03-06T00:28:22;25.97;;;14.37;;
79670;SDS011;69137;50.878;8.050;2024-03-06T00:30:47;29.70;;;16.00;;
79670;SDS011;69137;50.878;8.050;2024-03-06T00:33:12;29.47;;;15.63;;
79670;SDS011;69137;50.878;8.050;2024-03-06T00:35:38;25.73;;;15.27;;
79670;SDS011;69137;50.878;8.050;2024-03-06T00:38:03;35.80;;;17.57;;
79670;SDS011;69137;50.878;8.050;2024-03-06T00:40:29;32.45;;;16.02;;
79670;SDS011;69137;50.878;8.050;2024-03-06T00:42:57;33.25;;;17.15;;
79670;SDS011;69137;50.878;8.050;2024-03-06T00:45:23;26.75;;;14.65;;
79670;SDS011;69137;50.878;8.050;2024-03-06T00:47:49;30.30;;;15.38;;
79670;SDS011;69137;50.878;8.050;2024-03-06T00:50:14;30.20;;;15.15;;
79670;SDS011;69137;50.878;8.050;2024-03-06T00:52:41;30.52;;;15.93;;
79670;SDS011;69137;50.878;8.050;2024-03-06T00:55:07;28.58;;;15.05;;
79670;SDS011;69137;50.878;8.050;2024-03-06T00:57:33;30.83;;;16.67;;
79670;SDS011;69137;50.878;8.050;2024-03-06T00:59:58;31.67;;;16.10;;
79670;SDS011;69137;50.878;8.050;2024-03-06T01:02:23;29.00;;;14.33;;
79670;SDS011;69137;50.878;8.050;2024-03-06T01:04:49;31.43;;;16.10;;
79670;SDS011;69137;50.878;8.050;2024-03-06T01:07:14;31.30;;;16.00;;
79670;SDS011;69137;50.878;8.050;2024-03-06T01:09:39;27.63;;;15.80;;
79670;SDS011;69137;50.878;8.050;2024-03-06T01:12:05;29.83;;;15.93;;
79670;SDS011;69137;50.878;8.050;2024-03-06T01:14:30;30.95;;;16.40;;
79670;SDS011;69137;50.878;8.050;2024-03-06T01:16:56;30.90;;;15.27;;
79670;SDS011;69137;50.878;8.050;2024-03-06T01:19:21;29.80;;;16.35;;
79670;SDS011;69137;50.878;8.050;2024-03-06T01:21:46;29.57;;;15.60;;
79670;SDS011;69137;50.878;8.050;2024-03-06T01:24:13;31.55;;;16.33;;
79670;SDS011;69137;50.878;8.050;2024-03-06T01:26:38;32.33;;;16.42;;
79670;SDS011;69137;50.878;8.050;2024-03-06T01:29:05;27.27;;;15.40;;
79670;SDS011;69137;50.878;8.050;2024-03-06T01:31:30;28.27;;;15.03;;
79670;SDS011;69137;50.878;8.050;2024-03-06T01:33:55;31.53;;;16.50;;
79670;SDS011;69137;50.878;8.050;2024-03-06T01:36:21;27.33;;;15.20;;
79670;SDS011;69137;50.878;8.050;2024-03-06T01:38:46;25.40;;;14.37;;
79670;SDS011;69137;50.878;8.050;2024-03-06T01:41:11;31.53;;;15.07;;
79670;SDS011;69137;50.878;8.050;2024-03-06T01:43:37;28.45;;;15.60;;
79670;SDS011;69137;50.878;8.050;2024-03-06T01:46:04;27.42;;;14.82;;
79670;SDS011;69137;50.878;8.050;2024-03-06T01:48:29;27.38;;;14.20;;
79670;SDS011;69137;50.878;8.050;2024-03-06T01:50:56;27.40;;;14.38;;
79670;SDS011;69137;50.878;8.050;2024-03-06T01:53:24;27.10;;;15.20;;
79670;SDS011;69137;50.878;8.050;2024-03-06T01:55:49;27.63;;;13.90;;
79670;SDS011;69137;50.878;8.050;2024-03-06T01:58:16;31.25;;;15.82;;
79670;SDS011;69137;50.878;8.050;2024-03-06T02:00:42;27.83;;;15.13;;
79670;SDS011;69137;50.878;8.050;2024-03-06T02:03:08;27.30;;;14.50;;
79670;SDS011;69137;50.878;8.050;2024-03-06T02:05:33;24.83;;;13.25;;
79670;SDS011;69137;50.878;8.050;2024-03-06T02:07:59;29.58;;;15.07;;
79670;SDS011;69137;50.878;8.050;2024-03-06T02:10:25;26.40;;;13.35;;
79670;SDS011;69137;50.878;8.050;2024-03-06T02:12:52;33.63;;;14.75;;
79670;SDS011;69137;50.878;8.050;2024-03-06T02:15:18;27.88;;;16.30;;
79670;SDS011;69137;50.878;8.050;2024-03-06T02:17:45;32.40;;;16.30;;
79670;SDS011;69137;50.878;8.050;2024-03-06T02:20:11;26.45;;;14.30;;
79670;SDS011;69137;50.878;8.050;2024-03-06T02:22:40;27.17;;;14.35;;
79670;SDS011;69137;50.878;8.050;2024-03-06T02:25:06;31.92;;;15.95;;
79670;SDS011;69137;50.878;8.050;2024-03-06T02:27:33;28.42;;;14.63;;
79670;SDS011;69137;50.878;8.050;2024-03-06T02:29:58;30.20;;;14.17;;
79670;SDS011;69137;50.878;8.050;2024-03-06T02:32:23;26.23;;;14.33;;
79670;SDS011;69137;50.878;8.050;2024-03-06T02:34:50;28.42;;;15.32;;
79670;SDS011;69137;50.878;8.050;2024-03-06T02:37:15;30.80;;;16.20;;
79670;SDS011;69137;50.878;8.050;2024-03-06T02:39:41;34.45;;;16.55;;
79670;SDS011;69137;50.878;8.050;2024-03-06T02:42:06;34.23;;;16.33;;
79670;SDS011;69137;50.878;8.050;2024-03-06T02:44:32;31.90;;;16.50;;
79670;SDS011;69137;50.878;8.050;2024-03-06T02:46:58;28.90;;;14.98;;
79670;SDS011;69137;50.878;8.050;2024-03-06T02:49:23;30.53;;;15.20;;
79670;SDS011;69137;50.878;8.050;2024-03-06T02:51:49;30.60;;;15.57;;
79670;SDS011;69137;50.878;8.050;2024-03-06T02:54:14;29.20;;;14.40;;
79670;SDS011;69137;50.878;8.050;2024-03-06T02:56:39;25.10;;;13.70;;
79670;SDS011;69137;50.878;8.050;2024-03-06T02:59:05;26.02;;;14.35;;
79670;SDS011;69137;50.878;8.050;2024-03-06T03:01:30;27.50;;;14.30;;
79670;SDS011;69137;50.878;8.050;2024-03-06T03:03:56;26.77;;;13.10;;
79670;SDS011;69137;50.878;8.050;2024-03-06T03:06:21;26.33;;;14.25;;
79670;SDS011;69137;50.878;8.050;2024-03-06T03:08:48;28.20;;;14.20;;
79670;SDS011;69137;50.878;8.050;2024-03-06T03:11:14;27.95;;;13.77;;
79670;SDS011;69137;50.878;8.050;2024-03-06T03:13:40;24.67;;;12.88;;
79670;SDS011;69137;50.878;8.050;2024-03-06T03:16:06;28.65;;;13.43;;
79670;SDS011;69137;50.878;8.050;2024-03-06T03:18:32;20.23;;;12.10;;
79670;SDS011;69137;50.878;8.050;2024-03-06T03:20:57;25.00;;;13.48;;
79670;SDS011;69137;50.878;8.050;2024-03-06T03:23:22;24.15;;;13.18;;
79670;SDS011;69137;50.878;8.050;2024-03-06T03:25:48;25.10;;;13.73;;
79670;SDS011;69137;50.878;8.050;2024-03-06T03:28:16;27.63;;;12.95;;
79670;SDS011;69137;50.878;8.050;2024-03-06T03:30:44;26.55;;;13.82;;
79670;SDS011;69137;50.878;8.050;2024-03-06T03:33:10;25.50;;;14.70;;
79670;SDS011;69137;50.878;8.050;2024-03-06T03:35:35;29.60;;;14.55;;
79670;SDS011;69137;50.878;8.050;2024-03-06T03:38:01;28.67;;;14.47;;
79670;SDS011;69137;50.878;8.050;2024-03-06T03:40:26;29.73;;;15.23;;
79670;SDS011;69137;50.878;8.050;2024-03-06T03:42:51;27.87;;;14.50;;
79670;SDS011;69137;50.878;8.050;2024-03-06T03:45:17;28.35;;;14.90;;
79670;SDS011;69137;50.878;8.050;2024-03-06T03:47:42;29.95;;;14.73;;
79670;SDS011;69137;50.878;8.050;2024-03-06T03:50:08;30.17;;;14.48;;
79670;SDS011;69137;50.878;8.050;2024-03-06T03:52:33;30.15;;;14.48;;
79670;SDS011;69137;50.878;8.050;2024-03-06T03:54:59;34.53;;;14.40;;
79670;SDS011;69137;50.878;8.050;2024-03-06T03:57:24;31.43;;;15.83;;
79670;SDS011;69137;50.878;8.050;2024-03-06T03:59:49;31.33;;;14.93;;
79670;SDS011;69137;50.878;8.050;2024-03-06T04:02:16;30.40;;;16.42;;
79670;SDS011;69137;50.878;8.050;2024-03-06T04:04:41;32.63;;;15.88;;
79670;SDS011;69137;50.878;8.050;2024-03-06T04:07:07;28.23;;;14.10;;
79670;SDS011;69137;50.878;8.050;2024-03-06T04:09:32;28.10;;;14.03;;
79670;SDS011;69137;50.878;8.050;2024-03-06T04:12:00;29.10;;;15.65;;
79670;SDS011;69137;50.878;8.050;2024-03-06T04:14:26;31.73;;;15.63;;
79670;SDS011;69137;50.878;8.050;2024-03-06T04:16:51;34.30;;;16.73;;
79670;SDS011;69137;50.878;8.050;2024-03-06T04:19:17;32.47;;;14.63;;
79670;SDS011;69137;50.878;8.050;2024-03-06T04:21:42;30.70;;;15.13;;
79670;SDS011;69137;50.878;8.050;2024-03-06T04:24:08;32.72;;;15.32;;
79670;SDS011;69137;50.878;8.050;2024-03-06T04:26:33;30.30;;;15.00;;
79670;SDS011;69137;50.878;8.050;2024-03-06T04:28:59;34.73;;;15.20;;
79670;SDS011;69137;50.878;8.050;2024-03-06T04:31:24;32.83;;;15.80;;
79670;SDS011;69137;50.878;8.050;2024-03-06T04:33:50;33.75;;;15.85;;
79670;SDS011;69137;50.878;8.050;2024-03-06T04:36:15;29.23;;;14.70;;
79670;SDS011;69137;50.878;8.050;2024-03-06T04:38:40;30.03;;;15.17;;
79670;SDS011;69137;50.878;8.050;2024-03-06T04:41:06;34.03;;;15.98;;
79670;SDS011;69137;50.878;8.050;2024-03-06T04:43:31;32.47;;;15.80;;
79670;SDS011;69137;50.878;8.050;2024-03-06T04:45:57;33.08;;;16.42;;
79670;SDS011;69137;50.878;8.050;2024-03-06T04:48:22;32.97;;;15.70;;
79670;SDS011;69137;50.878;8.050;2024-03-06T04:50:48;32.17;;;16.13;;
79670;SDS011;69137;50.878;8.050;2024-03-06T04:53:13;28.95;;;15.20;;
79670;SDS011;69137;50.878;8.050;2024-03-06T04:55:39;40.50;;;17.63;;
79670;SDS011;69137;50.878;8.050;2024-03-06T04:58:04;53.67;;;17.17;;
79670;SDS011;69137;50.878;8.050;2024-03-06T05:00:30;60.73;;;17.80;;
79670;SDS011;69137;50.878;8.050;2024-03-06T05:02:55;75.38;;;19.25;;
79670;SDS011;69137;50.878;8.050;2024-03-06T05:05:21;55.25;;;18.73;;
79670;SDS011;69137;50.878;8.050;2024-03-06T05:07:47;60.30;;;17.73;;
79670;SDS011;69137;50.878;8.050;2024-03-06T05:10:13;41.13;;;17.17;;
79670;SDS011;69137;50.878;8.050;2024-03-06T05:12:38;46.57;;;17.00;;
79670;SDS011;69137;50.878;8.050;2024-03-06T05:15:03;64.37;;;19.17;;
79670;SDS011;69137;50.878;8.050;2024-03-06T05:17:29;62.38;;;17.20;;
79670;SDS011;69137;50.878;8.050;2024-03-06T05:19:54;45.38;;;15.63;;
79670;SDS011;69137;50.878;8.050;2024-03-06T05:22:20;49.97;;;16.27;;
79670;SDS011;69137;50.878;8.050;2024-03-06T05:24:46;48.05;;;16.25;;
79670;SDS011;69137;50.878;8.050;2024-03-06T05:27:11;53.97;;;16.48;;
79670;SDS011;69137;50.878;8.050;2024-03-06T05:29:43;69.07;;;15.15;;
79670;SDS011;69137;50.878;8.050;2024-03-06T05:32:09;32.40;;;16.13;;
79670;SDS011;69137;50.878;8.050;2024-03-06T05:34:34;49.03;;;15.73;;
79670;SDS011;69137;50.878;8.050;2024-03-06T05:37:00;44.58;;;17.67;;
79670;SDS011;69137;50.878;8.050;2024-03-06T05:39:26;45.00;;;15.38;;
79670;SDS011;69137;50.878;8.050;2024-03-06T05:41:53;46.20;;;16.20;;
79670;SDS011;69137;50.878;8.050;2024-03-06T05:44:19;45.00;;;16.67;;
79670;SDS011;69137;50.878;8.050;2024-03-06T05:46:45;52.78;;;17.85;;
79670;SDS011;69137;50.878;8.050;2024-03-06T05:49:11;36.78;;;16.63;;
79670;SDS011;69137;50.878;8.050;2024-03-06T05:51:37;55.78;;;17.75;;
79670;SDS011;69137;50.878;8.050;2024-03-06T05:54:03;41.00;;;15.98;;
79670;SDS011;69137;50.878;8.050;2024-03-06T05:56:29;43.05;;;14.18;;
79670;SDS011;69137;50.878;8.050;2024-03-06T05:58:54;50.40;;;16.00;;
79670;SDS011;69137;50.878;8.050;2024-03-06T06:01:19;38.58;;;15.70;;
79670;SDS011;69137;50.878;8.050;2024-03-06T06:03:48;39.67;;;15.90;;
79670;SDS011;69137;50.878;8.050;2024-03-06T06:06:16;42.67;;;15.95;;
79670;SDS011;69137;50.878;8.050;2024-03-06T06:08:42;41.33;;;16.98;;
79670;SDS011;69137;50.878;8.050;2024-03-06T06:11:09;35.33;;;15.20;;
79670;SDS011;69137;50.878;8.050;2024-03-06T06:13:34;34.45;;;15.70;;
79670;SDS011;69137;50.878;8.050;2024-03-06T06:16:00;38.23;;;16.53;;
79670;SDS011;69137;50.878;8.050;2024-03-06T06:18:28;37.55;;;15.50;;
79670;SDS011;69137;50.878;8.050;2024-03-06T06:20:53;31.42;;;14.63;;
79670;SDS011;69137;50.878;8.050;2024-03-06T06:23:19;33.78;;;13.45;;
79670;SDS011;69137;50.878;8.050;2024-03-06T06:25:44;32.42;;;14.10;;
79670;SDS011;69137;50.878;8.050;2024-03-06T06:28:10;30.73;;;14.27;;
79670;SDS011;69137;50.878;8.050;2024-03-06T06:30:36;32.08;;;14.57;;
79670;SDS011;69137;50.878;8.050;2024-03-06T06:33:03;30.48;;;14.07;;
79670;SDS011;69137;50.878;8.050;2024-03-06T06:35:28;34.42;;;14.50;;
79670;SDS011;69137;50.878;8.050;2024-03-06T06:37:54;35.23;;;12.97;;
79670;SDS011;69137;50.878;8.050;2024-03-06T06:40:19;33.27;;;13.50;;
79670;SDS011;69137;50.878;8.050;2024-03-06T06:42:45;28.75;;;13.35;;
79670;SDS011;69137;50.878;8.050;2024-03-06T06:45:14;43.75;;;14.50;;
79670;SDS011;69137;50.878;8.050;2024-03-06T06:47:43;26.10;;;11.57;;
79670;SDS011;69137;50.878;8.050;2024-03-06T06:50:08;29.38;;;13.48;;
79670;SDS011;69137;50.878;8.050;2024-03-06T06:52:34;24.65;;;12.00;;
79670;SDS011;69137;50.878;8.050;2024-03-06T06:55:00;26.10;;;11.23;;
79670;SDS011;69137;50.878;8.050;2024-03-06T06:57:25;30.00;;;12.98;;
79670;SDS011;69137;50.878;8.050;2024-03-06T06:59:51;30.63;;;12.87;;
79670;SDS011;69137;50.878;8.050;2024-03-06T07:02:17;36.17;;;13.25;;
79670;SDS011;69137;50.878;8.050;2024-03-06T07:04:42;32.83;;;13.80;;
79670;SDS011;69137;50.878;8.050;2024-03-06T07:07:08;35.57;;;13.87;;
79670;SDS011;69137;50.878;8.050;2024-03-06T07:09:33;20.83;;;10.30;;
79670;SDS011;69137;50.878;8.050;2024-03-06T07:11:59;22.88;;;10.05;;
79670;SDS011;69137;50.878;8.050;2024-03-06T07:14:24;25.05;;;10.98;;
79670;SDS011;69137;50.878;8.050;2024-03-06T07:16:50;29.70;;;14.37;;
79670;SDS011;69137;50.878;8.050;2024-03-06T07:19:15;38.33;;;13.73;;
79670;SDS011;69137;50.878;8.050;2024-03-06T07:21:41;40.42;;;15.25;;
79670;SDS011;69137;50.878;8.050;2024-03-06T07:24:07;43.15;;;16.90;;
79670;SDS011;69137;50.878;8.050;2024-03-06T07:26:32;82.10;;;16.63;;
79670;SDS011;69137;50.878;8.050;2024-03-06T07:28:58;43.63;;;16.75;;
79670;SDS011;69137;50.878;8.050;2024-03-06T07:31:23;37.25;;;16.52;;
79670;SDS011;69137;50.878;8.050;2024-03-06T07:33:49;49.70;;;19.02;;
79670;SDS011;69137;50.878;8.050;2024-03-06T07:36:15;66.43;;;16.98;;
79670;SDS011;69137;50.878;8.050;2024-03-06T07:38:41;49.28;;;16.67;;
79670;SDS011;69137;50.878;8.050;2024-03-06T07:41:07;97.85;;;17.45;;
79670;SDS011;69137;50.878;8.050;2024-03-06T07:43:32;54.20;;;15.90;;
79670;SDS011;69137;50.878;8.050;2024-03-06T07:45:57;46.20;;;15.53;;
79670;SDS011;69137;50.878;8.050;2024-03-06T07:48:23;41.72;;;15.80;;
79670;SDS011;69137;50.878;8.050;2024-03-06T07:50:49;48.28;;;16.27;;
79670;SDS011;69137;50.878;8.050;2024-03-06T07:53:14;75.03;;;18.20;;
79670;SDS011;69137;50.878;8.050;2024-03-06T07:55:40;51.40;;;17.83;;
79670;SDS011;69137;50.878;8.050;2024-03-06T07:58:06;47.53;;;16.17;;
79670;SDS011;69137;50.878;8.050;2024-03-06T08:00:33;48.97;;;16.83;;
79670;SDS011;69137;50.878;8.050;2024-03-06T08:02:58;50.47;;;15.75;;
79670;SDS011;69137;50.878;8.050;2024-03-06T08:05:25;40.58;;;14.85;;
79670;SDS011;69137;50.878;8.050;2024-03-06T08:07:51;43.25;;;15.85;;
79670;SDS011;69137;50.878;8.050;2024-03-06T08:10:16;39.75;;;15.30;;
79670;SDS011;69137;50.878;8.050;2024-03-06T08:12:43;42.63;;;15.98;;
79670;SDS011;69137;50.878;8.050;2024-03-06T08:15:12;37.47;;;16.15;;
79670;SDS011;69137;50.878;8.050;2024-03-06T08:17:39;46.70;;;16.75;;
79670;SDS011;69137;50.878;8.050;2024-03-06T08:20:07;36.78;;;16.77;;
79670;SDS011;69137;50.878;8.050;2024-03-06T08:22:43;41.45;;;16.63;;
79670;SDS011;69137;50.878;8.050;2024-03-06T08:25:09;43.38;;;17.17;;
79670;SDS011;69137;50.878;8.050;2024-03-06T08:27:36;40.63;;;18.05;;
79670;SDS011;69137;50.878;8.050;2024-03-06T08:30:06;45.78;;;16.05;;
79670;SDS011;69137;50.878;8.050;2024-03-06T08:32:32;47.10;;;14.95;;
79670;SDS011;69137;50.878;8.050;2024-03-06T08:35:00;39.72;;;14.93;;
79670;SDS011;69137;50.878;8.050;2024-03-06T08:37:36;37.80;;;14.90;;
79670;SDS011;69137;50.878;8.050;2024-03-06T08:40:08;38.58;;;15.10;;
79670;SDS011;69137;50.878;8.050;2024-03-06T08:42:39;34.03;;;12.80;;
79670;SDS011;69137;50.878;8.050;2024-03-06T08:45:05;43.00;;;14.80;;
79670;SDS011;69137;50.878;8.050;2024-03-06T08:47:31;29.20;;;12.50;;
79670;SDS011;69137;50.878;8.050;2024-03-06T08:49:56;44.90;;;12.57;;
79670;SDS011;69137;50.878;8.050;2024-03-06T08:52:21;27.90;;;12.40;;
79670;SDS011;69137;50.878;8.050;2024-03-06T08:54:46;33.70;;;12.83;;
79670;SDS011;69137;50.878;8.050;2024-03-06T08:57:12;25.70;;;11.50;;
79670;SDS011;69137;50.878;8.050;2024-03-06T08:59:37;25.38;;;11.05;;
79670;SDS011;69137;50.878;8.050;2024-03-06T09:02:12;30.23;;;12.27;;
79670;SDS011;69137;50.878;8.050;2024-03-06T09:04:39;22.50;;;10.13;;
79670;SDS011;69137;50.878;8.050;2024-03-06T09:07:05;23.77;;;11.85;;
79670;SDS011;69137;50.878;8.050;2024-03-06T09:09:30;25.35;;;11.52;;
79670;SDS011;69137;50.878;8.050;2024-03-06T09:11:58;27.65;;;11.20;;
79670;SDS011;69137;50.878;8.050;2024-03-06T09:14:24;25.08;;;11.80;;
79670;SDS011;69137;50.878;8.050;2024-03-06T09:16:49;24.27;;;12.05;;
79670;SDS011;69137;50.878;8.050;2024-03-06T09:19:15;26.07;;;12.43;;
79670;SDS011;69137;50.878;8.050;2024-03-06T09:21:40;36.07;;;14.00;;
79670;SDS011;69137;50.878;8.050;2024-03-06T09:24:05;31.70;;;12.33;;
79670;SDS011;69137;50.878;8.050;2024-03-06T09:26:31;32.97;;;14.52;;
79670;SDS011;69137;50.878;8.050;2024-03-06T09:28:56;34.53;;;15.47;;
79670;SDS011;69137;50.878;8.050;2024-03-06T09:31:21;34.10;;;13.63;;
79670;SDS011;69137;50.878;8.050;2024-03-06T09:33:47;36.07;;;15.07;;
79670;SDS011;69137;50.878;8.050;2024-03-06T09:36:12;35.07;;;17.00;;
79670;SDS011;69137;50.878;8.050;2024-03-06T09:38:38;35.13;;;14.77;;
79670;SDS011;69137;50.878;8.050;2024-03-06T09:41:05;29.08;;;14.10;;
79670;SDS011;69137;50.878;8.050;2024-03-06T09:43:32;37.15;;;15.13;;
79670;SDS011;69137;50.878;8.050;2024-03-06T09:45:57;29.83;;;12.88;;
79670;SDS011;69137;50.878;8.050;2024-03-06T09:48:23;35.13;;;13.77;;
79670;SDS011;69137;50.878;8.050;2024-03-06T09:50:48;30.60;;;13.43;;
79670;SDS011;69137;50.878;8.050;2024-03-06T09:53:16;26.60;;;13.40;;
79670;SDS011;69137;50.878;8.050;2024-03-06T09:55:42;27.38;;;13.52;;
79670;SDS011;69137;50.878;8.050;2024-03-06T09:58:09;31.92;;;13.85;;
79670;SDS011;69137;50.878;8.050;2024-03-06T10:00:34;27.70;;;12.68;;
79670;SDS011;69137;50.878;8.050;2024-03-06T10:03:01;28.48;;;12.90;;
79670;SDS011;69137;50.878;8.050;2024-03-06T10:05:33;31.45;;;13.48;;
79670;SDS011;69137;50.878;8.050;2024-03-06T10:08:00;24.70;;;12.77;;
79670;SDS011;69137;50.878;8.050;2024-03-06T10:10:26;25.80;;;12.30;;
79670;SDS011;69137;50.878;8.050;2024-03-06T10:12:51;26.70;;;13.07;;
79670;SDS011;69137;50.878;8.050;2024-03-06T10:15:17;28.65;;;13.73;;
79670;SDS011;69137;50.878;8.050;2024-03-06T10:17:43;32.40;;;16.13;;
79670;SDS011;69137;50.878;8.050;2024-03-06T10:20:16;30.23;;;14.98;;
79670;SDS011;69137;50.878;8.050;2024-03-06T10:22:45;28.70;;;14.50;;
79670;SDS011;69137;50.878;8.050;2024-03-06T10:25:19;31.83;;;15.63;;
79670;SDS011;69137;50.878;8.050;2024-03-06T10:27:46;31.08;;;15.13;;
79670;SDS011;69137;50.878;8.050;2024-03-06T10:30:27;30.77;;;14.77;;
79670;SDS011;69137;50.878;8.050;2024-03-06T10:32:53;29.20;;;12.57;;
79670;SDS011;69137;50.878;8.050;2024-03-06T10:35:20;30.58;;;14.95;;
79670;SDS011;69137;50.878;8.050;2024-03-06T10:37:49;25.92;;;12.75;;
79670;SDS011;69137;50.878;8.050;2024-03-06T10:40:15;30.70;;;13.27;;
79670;SDS011;69137;50.878;8.050;2024-03-06T10:42:42;24.40;;;12.32;;
79670;SDS011;69137;50.878;8.050;2024-03-06T10:45:09;24.60;;;12.38;;
79670;SDS011;69137;50.878;8.050;2024-03-06T10:47:39;23.20;;;11.93;;
79670;SDS011;69137;50.878;8.050;2024-03-06T10:50:05;24.27;;;12.85;;
79670;SDS011;69137;50.878;8.050;2024-03-06T10:52:35;30.15;;;15.43;;
79670;SDS011;69137;50.878;8.050;2024-03-06T10:55:03;27.48;;;13.35;;
79670;SDS011;69137;50.878;8.050;2024-03-06T10:57:29;25.77;;;12.70;;
79670;SDS011;69137;50.878;8.050;2024-03-06T10:59:55;22.83;;;11.85;;
79670;SDS011;69137;50.878;8.050;2024-03-06T11:02:24;22.13;;;11.65;;
79670;SDS011;69137;50.878;8.050;2024-03-06T11:04:52;22.85;;;11.98;;
79670;SDS011;69137;50.878;8.050;2024-03-06T11:07:19;26.65;;;12.13;;
79670;SDS011;69137;50.878;8.050;2024-03-06T11:09:44;25.08;;;11.98;;
79670;SDS011;69137;50.878;8.050;2024-03-06T11:12:14;20.92;;;10.52;;
79670;SDS011;69137;50.878;8.050;2024-03-06T11:14:57;23.20;;;11.55;;
79670;SDS011;69137;50.878;8.050;2024-03-06T11:17:25;21.13;;;10.83;;
79670;SDS011;69137;50.878;8.050;2024-03-06T11:25:09;19.35;;;10.38;;
79670;SDS011;69137;50.878;8.050;2024-03-06T11:28:37;22.95;;;12.45;;
79670;SDS011;69137;50.878;8.050;2024-03-06T11:31:09;18.23;;;9.88;;
79670;SDS011;69137;50.878;8.050;2024-03-06T11:33:44;14.95;;;7.95;;
79670;SDS011;69137;50.878;8.050;2024-03-06T11:38:51;15.65;;;8.75;;
79670;SDS011;69137;50.878;8.050;2024-03-06T11:41:31;16.13;;;8.07;;
79670;SDS011;69137;50.878;8.050;2024-03-06T11:44:18;16.13;;;8.27;;
79670;SDS011;69137;50.878;8.050;2024-03-06T11:47:05;14.38;;;7.78;;
79670;SDS011;69137;50.878;8.050;2024-03-06T11:49:34;11.73;;;6.90;;
79670;SDS011;69137;50.878;8.050;2024-03-06T11:54:35;11.98;;;6.15;;
79670;SDS011;69137;50.878;8.050;2024-03-06T11:57:01;15.93;;;10.38;;
79670;SDS011;69137;50.878;8.050;2024-03-06T11:59:29;12.30;;;7.03;;
79670;SDS011;69137;50.878;8.050;2024-03-06T12:01:57;12.38;;;7.30;;
79670;SDS011;69137;50.878;8.050;2024-03-06T12:04:26;11.07;;;6.53;;
79670;SDS011;69137;50.878;8.050;2024-03-06T12:06:52;11.18;;;5.97;;
79670;SDS011;69137;50.878;8.050;2024-03-06T12:09:18;11.68;;;6.25;;
79670;SDS011;69137;50.878;8.050;2024-03-06T12:11:43;10.37;;;6.10;;
79670;SDS011;69137;50.878;8.050;2024-03-06T12:14:16;9.88;;;5.60;;
79670;SDS011;69137;50.878;8.050;2024-03-06T12:16:43;9.52;;;6.03;;
79670;SDS011;69137;50.878;8.050;2024-03-06T12:19:09;12.98;;;5.47;;
79670;SDS011;69137;50.878;8.050;2024-03-06T12:21:35;7.50;;;4.68;;
79670;SDS011;69137;50.878;8.050;2024-03-06T12:24:07;10.27;;;5.33;;
79670;SDS011;69137;50.878;8.050;2024-03-06T12:26:33;8.25;;;4.95;;
79670;SDS011;69137;50.878;8.050;2024-03-06T12:29:11;9.45;;;5.57;;
79670;SDS011;69137;50.878;8.050;2024-03-06T12:31:37;10.27;;;6.57;;
79670;SDS011;69137;50.878;8.050;2024-03-06T12:34:04;9.80;;;5.55;;
79670;SDS011;69137;50.878;8.050;2024-03-06T12:36:31;8.30;;;5.53;;
79670;SDS011;69137;50.878;8.050;2024-03-06T12:39:01;8.27;;;5.45;;
79670;SDS011;69137;50.878;8.050;2024-03-06T12:41:28;7.75;;;3.88;;
79670;SDS011;69137;50.878;8.050;2024-03-06T12:43:54;5.80;;;3.55;;
79670;SDS011;69137;50.878;8.050;2024-03-06T12:46:23;5.38;;;4.10;;
79670;SDS011;69137;50.878;8.050;2024-03-06T12:48:51;6.75;;;3.35;;
79670;SDS011;69137;50.878;8.050;2024-03-06T12:51:16;6.53;;;3.70;;
79670;SDS011;69137;50.878;8.050;2024-03-06T12:53:41;5.60;;;3.57;;
79670;SDS011;69137;50.878;8.050;2024-03-06T12:56:07;13.13;;;5.85;;
79670;SDS011;69137;50.878;8.050;2024-03-06T12:58:33;5.93;;;3.00;;
79670;SDS011;69137;50.878;8.050;2024-03-06T13:01:00;6.38;;;3.13;;
79670;SDS011;69137;50.878;8.050;2024-03-06T13:03:26;6.38;;;3.15;;
79670;SDS011;69137;50.878;8.050;2024-03-06T13:05:51;6.77;;;3.40;;
79670;SDS011;69137;50.878;8.050;2024-03-06T13:08:17;4.27;;;2.57;;
79670;SDS011;69137;50.878;8.050;2024-03-06T13:10:42;6.03;;;2.93;;
79670;SDS011;69137;50.878;8.050;2024-03-06T13:13:07;5.85;;;2.90;;
79670;SDS011;69137;50.878;8.050;2024-03-06T13:15:33;3.30;;;2.13;;
79670;SDS011;69137;50.878;8.050;2024-03-06T13:18:02;5.03;;;2.67;;
79670;SDS011;69137;50.878;8.050;2024-03-06T13:20:28;5.70;;;2.25;;
79670;SDS011;69137;50.878;8.050;2024-03-06T13:22:54;3.80;;;2.10;;
79670;SDS011;69137;50.878;8.050;2024-03-06T13:25:19;5.57;;;2.97;;
79670;SDS011;69137;50.878;8.050;2024-03-06T13:27:45;4.80;;;2.75;;
79670;SDS011;69137;50.878;8.050;2024-03-06T13:30:11;5.18;;;3.30;;
79670;SDS011;69137;50.878;8.050;2024-03-06T13:32:37;6.10;;;3.33;;
79670;SDS011;69137;50.878;8.050;2024-03-06T13:35:02;9.00;;;4.82;;
79670;SDS011;69137;50.878;8.050;2024-03-06T13:37:28;9.30;;;5.13;;
79670;SDS011;69137;50.878;8.050;2024-03-06T13:39:53;8.23;;;4.87;;
79670;SDS011;69137;50.878;8.050;2024-03-06T13:42:23;8.30;;;5.30;;
79670;SDS011;69137;50.878;8.050;2024-03-06T13:44:48;8.27;;;5.33;;
79670;SDS011;69137;50.878;8.050;2024-03-06T13:47:14;8.93;;;5.33;;
79670;SDS011;69137;50.878;8.050;2024-03-06T13:49:41;8.75;;;5.15;;
79670;SDS011;69137;50.878;8.050;2024-03-06T13:52:07;9.20;;;5.43;;
79670;SDS011;69137;50.878;8.050;2024-03-06T13:54:38;8.25;;;5.05;;
79670;SDS011;69137;50.878;8.050;2024-03-06T13:57:05;7.65;;;4.97;;
79670;SDS011;69137;50.878;8.050;2024-03-06T13:59:31;9.57;;;5.15;;
79670;SDS011;69137;50.878;8.050;2024-03-06T14:01:57;13.20;;;5.95;;
79670;SDS011;69137;50.878;8.050;2024-03-06T14:04:23;8.85;;;5.82;;
79670;SDS011;69137;50.878;8.050;2024-03-06T14:06:49;10.90;;;5.70;;
79670;SDS011;69137;50.878;8.050;2024-03-06T14:09:15;9.35;;;5.68;;
79670;SDS011;69137;50.878;8.050;2024-03-06T14:11:40;8.30;;;5.43;;
79670;SDS011;69137;50.878;8.050;2024-03-06T14:14:06;9.27;;;6.63;;
79670;SDS011;69137;50.878;8.050;2024-03-06T14:16:31;9.90;;;5.85;;
79670;SDS011;69137;50.878;8.050;2024-03-06T14:18:57;9.45;;;6.28;;
79670;SDS011;69137;50.878;8.050;2024-03-06T14:21:22;17.33;;;10.13;;
79670;SDS011;69137;50.878;8.050;2024-03-06T14:23:47;17.45;;;11.35;;
79670;SDS011;69137;50.878;8.050;2024-03-06T14:26:13;10.07;;;6.43;;
79670;SDS011;69137;50.878;8.050;2024-03-06T14:28:38;11.37;;;6.87;;
79670;SDS011;69137;50.878;8.050;2024-03-06T14:31:03;9.97;;;6.00;;
79670;SDS011;69137;50.878;8.050;2024-03-06T14:33:30;11.52;;;7.53;;